sensor_id;sensor_type;location;lat;lon;timestamp;pressure;altitude;pressure_sealevel;temperature;humidity
1726;BME280;41776;48.260;8.928;2023-04-23T00:00:26;52412.69;;;-145.69;100.00
1726;BME280;41776;48.260;8.928;2023-04-23T00:02:56;52402.78;;;-145.69;100.00
1726;BME280;41776;48.260;8.928;2023-04-23T00:05:26;52384.97;;;-145.69;100.00
1726;BME280;41776;48.260;8.928;2023-04-23T00:07:53;52418.63;;;-145.69;100.00
1726;BME280;41776;48.260;8.928;2023-04-23T00:10:20;52404.78;;;-145.69;100.00
1726;BME280;41776;48.260;8.928;2023-04-23T00:12:48;52418.63;;;-145.69;100.00
1726;BME280;41776;48.260;8.928;2023-04-23T00:15:15;52384.97;;;-145.69;100.00
1726;BME280;41776;48.260;8.928;2023-04-23T00:17:41;52428.53;;;-145.69;100.00
1726;BME280;41776;48.260;8.928;2023-04-23T00:20:10;52410.72;;;-145.69;100.00
1726;BME280;41776;48.260;8.928;2023-04-23T00:22:36;52440.44;;;-145.69;100.00
1726;BME280;41776;48.260;8.928;2023-04-23T00:25:03;52408.75;;;-145.69;100.00
1726;BME280;41776;48.260;8.928;2023-04-23T00:27:30;52428.53;;;-145.69;100.00
1726;BME280;41776;48.260;8.928;2023-04-23T00:29:57;52430.53;;;-145.69;100.00
1726;BME280;41776;48.260;8.928;2023-04-23T00:32:23;52428.53;;;-145.69;100.00
1726;BME280;41776;48.260;8.928;2023-04-23T00:34:49;52412.69;;;-145.69;100.00
1726;BME280;41776;48.260;8.928;2023-04-23T00:37:17;52420.63;;;-145.69;100.00
1726;BME280;41776;48.260;8.928;2023-04-23T00:39:44;52422.59;;;-145.69;100.00
1726;BME280;41776;48.260;8.928;2023-04-23T00:42:11;52400.81;;;-145.69;100.00
1726;BME280;41776;48.260;8.928;2023-04-23T00:44:38;52369.13;;;-145.69;100.00
1726;BME280;41776;48.260;8.928;2023-04-23T00:47:07;52388.94;;;-145.69;100.00
1726;BME280;41776;48.260;8.928;2023-04-23T00:49:34;52418.63;;;-145.69;100.00
1726;BME280;41776;48.260;8.928;2023-04-23T00:52:00;52392.91;;;-145.69;100.00
1726;BME280;41776;48.260;8.928;2023-04-23T00:54:28;52422.59;;;-145.69;100.00
1726;BME280;41776;48.260;8.928;2023-04-23T00:56:55;52420.63;;;-145.69;100.00
1726;BME280;41776;48.260;8.928;2023-04-23T00:59:24;52434.47;;;-145.69;100.00
1726;BME280;41776;48.260;8.928;2023-04-23T01:01:51;52422.59;;;-145.69;100.00
1726;BME280;41776;48.260;8.928;2023-04-23T01:04:18;52424.59;;;-145.69;100.00
1726;BME280;41776;48.260;8.928;2023-04-23T01:06:45;52440.44;;;-145.69;100.00
1726;BME280;41776;48.260;8.928;2023-04-23T01:09:13;52452.31;;;-145.69;100.00
1726;BME280;41776;48.260;8.928;2023-04-23T01:11:43;52426.56;;;-145.69;100.00
1726;BME280;41776;48.260;8.928;2023-04-23T01:14:10;52434.47;;;-145.69;100.00
1726;BME280;41776;48.260;8.928;2023-04-23T01:16:37;52412.69;;;-145.69;100.00
1726;BME280;41776;48.260;8.928;2023-04-23T01:19:04;52444.38;;;-145.69;100.00
1726;BME280;41776;48.260;8.928;2023-04-23T01:21:31;52424.59;;;-145.69;100.00
1726;BME280;41776;48.260;8.928;2023-04-23T01:24:00;52420.63;;;-145.69;100.00
1726;BME280;41776;48.260;8.928;2023-04-23T01:26:27;52440.44;;;-145.69;100.00
1726;BME280;41776;48.260;8.928;2023-04-23T01:28:54;52420.63;;;-145.69;100.00
1726;BME280;41776;48.260;8.928;2023-04-23T01:31:21;52428.53;;;-145.69;100.00
1726;BME280;41776;48.260;8.928;2023-04-23T01:33:48;52450.31;;;-145.69;100.00
1726;BME280;41776;48.260;8.928;2023-04-23T01:36:16;52424.59;;;-145.69;100.00
1726;BME280;41776;48.260;8.928;2023-04-23T01:38:43;52432.50;;;-145.69;100.00
1726;BME280;41776;48.260;8.928;2023-04-23T01:41:11;52420.63;;;-145.69;100.00
1726;BME280;41776;48.260;8.928;2023-04-23T01:43:39;52406.75;;;-145.69;100.00
1726;BME280;41776;48.260;8.928;2023-04-23T01:46:07;52432.50;;;-145.69;100.00
1726;BME280;41776;48.260;8.928;2023-04-23T01:48:34;52440.44;;;-145.69;100.00
1726;BME280;41776;48.260;8.928;2023-04-23T01:51:00;52406.75;;;-145.69;100.00
1726;BME280;41776;48.260;8.928;2023-04-23T01:53:27;52408.75;;;-145.69;100.00
1726;BME280;41776;48.260;8.928;2023-04-23T01:55:54;52442.41;;;-145.69;100.00
1726;BME280;41776;48.260;8.928;2023-04-23T01:58:23;52456.28;;;-145.69;100.00
1726;BME280;41776;48.260;8.928;2023-04-23T02:00:49;52434.47;;;-145.69;100.00
1726;BME280;41776;48.260;8.928;2023-04-23T02:03:16;52456.28;;;-145.69;100.00
1726;BME280;41776;48.260;8.928;2023-04-23T02:05:43;52456.28;;;-145.69;100.00
1726;BME280;41776;48.260;8.928;2023-04-23T02:08:10;52456.28;;;-145.69;100.00
1726;BME280;41776;48.260;8.928;2023-04-23T02:10:37;52452.31;;;-145.69;100.00
1726;BME280;41776;48.260;8.928;2023-04-23T02:13:03;52470.13;;;-145.69;100.00
1726;BME280;41776;48.260;8.928;2023-04-23T02:15:31;52452.31;;;-145.69;100.00
1726;BME280;41776;48.260;8.928;2023-04-23T02:17:58;52438.44;;;-145.69;100.00
1726;BME280;41776;48.260;8.928;2023-04-23T02:20:24;52432.50;;;-145.69;100.00
1726;BME280;41776;48.260;8.928;2023-04-23T02:22:51;52450.31;;;-145.69;100.00
1726;BME280;41776;48.260;8.928;2023-04-23T02:25:17;52452.31;;;-145.69;100.00
1726;BME280;41776;48.260;8.928;2023-04-23T02:27:46;52438.44;;;-145.69;100.00
1726;BME280;41776;48.260;8.928;2023-04-23T02:30:12;52462.22;;;-145.69;100.00
1726;BME280;41776;48.260;8.928;2023-04-23T02:32:40;52487.97;;;-145.69;100.00
1726;BME280;41776;48.260;8.928;2023-04-23T02:35:08;52474.09;;;-145.69;100.00
1726;BME280;41776;48.260;8.928;2023-04-23T02:37:36;52424.59;;;-145.69;100.00
1726;BME280;41776;48.260;8.928;2023-04-23T02:40:02;52474.09;;;-145.69;100.00
1726;BME280;41776;48.260;8.928;2023-04-23T02:42:30;52416.66;;;-145.69;100.00
1726;BME280;41776;48.260;8.928;2023-04-23T02:44:56;52472.13;;;-145.69;100.00
1726;BME280;41776;48.260;8.928;2023-04-23T02:47:22;52456.28;;;-145.69;100.00
1726;BME280;41776;48.260;8.928;2023-04-23T02:49:51;52452.31;;;-145.69;100.00
1726;BME280;41776;48.260;8.928;2023-04-23T02:52:17;52468.16;;;-145.69;100.00
1726;BME280;41776;48.260;8.928;2023-04-23T02:54:44;52420.63;;;-145.69;100.00
1726;BME280;41776;48.260;8.928;2023-04-23T02:57:10;52464.19;;;-145.69;100.00
1726;BME280;41776;48.260;8.928;2023-04-23T02:59:38;52468.16;;;-145.69;100.00
1726;BME280;41776;48.260;8.928;2023-04-23T03:02:05;52472.13;;;-145.69;100.00
1726;BME280;41776;48.260;8.928;2023-04-23T03:04:31;52426.56;;;-145.69;100.00
1726;BME280;41776;48.260;8.928;2023-04-23T03:06:59;52456.28;;;-145.69;100.00
1726;BME280;41776;48.260;8.928;2023-04-23T03:09:26;52484.00;;;-145.69;100.00
1726;BME280;41776;48.260;8.928;2023-04-23T03:11:52;52476.06;;;-145.69;100.00
1726;BME280;41776;48.260;8.928;2023-04-23T03:14:20;52472.13;;;-145.69;100.00
1726;BME280;41776;48.260;8.928;2023-04-23T03:16:46;52452.31;;;-145.69;100.00
1726;BME280;41776;48.260;8.928;2023-04-23T03:19:13;52480.03;;;-145.69;100.00
1726;BME280;41776;48.260;8.928;2023-04-23T03:21:40;52472.13;;;-145.69;100.00
1726;BME280;41776;48.260;8.928;2023-04-23T03:24:09;52501.81;;;-145.69;100.00
1726;BME280;41776;48.260;8.928;2023-04-23T03:26:36;52484.00;;;-145.69;100.00
1726;BME280;41776;48.260;8.928;2023-04-23T03:29:02;52489.94;;;-145.69;100.00
1726;BME280;41776;48.260;8.928;2023-04-23T03:31:30;52493.91;;;-145.69;100.00
1726;BME280;41776;48.260;8.928;2023-04-23T03:33:57;52476.06;;;-145.69;100.00
1726;BME280;41776;48.260;8.928;2023-04-23T03:36:23;52464.19;;;-145.69;100.00
1726;BME280;41776;48.260;8.928;2023-04-23T03:38:50;52491.91;;;-145.69;100.00
1726;BME280;41776;48.260;8.928;2023-04-23T03:41:18;52501.81;;;-145.69;100.00
1726;BME280;41776;48.260;8.928;2023-04-23T03:43:44;52505.78;;;-145.69;100.00
1726;BME280;41776;48.260;8.928;2023-04-23T03:46:11;52493.91;;;-145.69;100.00
1726;BME280;41776;48.260;8.928;2023-04-23T03:48:37;52464.19;;;-145.69;100.00
1726;BME280;41776;48.260;8.928;2023-04-23T03:51:04;52487.97;;;-145.69;100.00
1726;BME280;41776;48.260;8.928;2023-04-23T03:53:30;52480.03;;;-145.69;100.00
1726;BME280;41776;48.260;8.928;2023-04-23T03:55:57;52468.16;;;-145.69;100.00
1726;BME280;41776;48.260;8.928;2023-04-23T03:58:24;52456.28;;;-145.69;100.00
1726;BME280;41776;48.260;8.928;2023-04-23T04:00:51;52493.91;;;-145.69;100.00
1726;BME280;41776;48.260;8.928;2023-04-23T04:03:18;52472.13;;;-145.69;100.00
1726;BME280;41776;48.260;8.928;2023-04-23T04:05:45;52482.00;;;-145.69;100.00
1726;BME280;41776;48.260;8.928;2023-04-23T04:08:12;52499.84;;;-145.69;100.00
1726;BME280;41776;48.260;8.928;2023-04-23T04:10:38;52497.84;;;-145.69;100.00
1726;BME280;41776;48.260;8.928;2023-04-23T04:13:05;52517.66;;;-145.69;100.00
1726;BME280;41776;48.260;8.928;2023-04-23T04:15:33;52487.97;;;-145.69;100.00
1726;BME280;41776;48.260;8.928;2023-04-23T04:17:59;52497.84;;;-145.69;100.00
1726;BME280;41776;48.260;8.928;2023-04-23T04:20:26;52480.03;;;-145.69;100.00
1726;BME280;41776;48.260;8.928;2023-04-23T04:22:53;52497.84;;;-145.69;100.00
1726;BME280;41776;48.260;8.928;2023-04-23T04:25:20;52480.03;;;-145.69;100.00
1726;BME280;41776;48.260;8.928;2023-04-23T04:27:50;52478.06;;;-145.69;100.00
1726;BME280;41776;48.260;8.928;2023-04-23T04:30:16;52484.00;;;-145.69;100.00
1726;BME280;41776;48.260;8.928;2023-04-23T04:32:44;52501.81;;;-145.69;100.00
1726;BME280;41776;48.260;8.928;2023-04-23T04:35:11;52484.00;;;-145.69;100.00
1726;BME280;41776;48.260;8.928;2023-04-23T04:37:38;52484.00;;;-145.69;100.00
1726;BME280;41776;48.260;8.928;2023-04-23T04:40:07;52501.81;;;-145.69;100.00
1726;BME280;41776;48.260;8.928;2023-04-23T04:42:35;52462.22;;;-145.69;100.00
1726;BME280;41776;48.260;8.928;2023-04-23T04:45:04;52509.75;;;-145.69;100.00
1726;BME280;41776;48.260;8.928;2023-04-23T04:47:31;52480.03;;;-145.69;100.00
1726;BME280;41776;48.260;8.928;2023-04-23T04:49:59;52474.09;;;-145.69;100.00
1726;BME280;41776;48.260;8.928;2023-04-23T04:52:26;52480.03;;;-145.69;100.00
1726;BME280;41776;48.260;8.928;2023-04-23T04:54:53;52487.97;;;-145.69;100.00
1726;BME280;41776;48.260;8.928;2023-04-23T04:57:19;52485.97;;;-145.69;100.00
1726;BME280;41776;48.260;8.928;2023-04-23T04:59:47;52515.69;;;-145.69;100.00
1726;BME280;41776;48.260;8.928;2023-04-23T05:02:13;52466.16;;;-145.69;100.00
1726;BME280;41776;48.260;8.928;2023-04-23T05:04:40;52484.00;;;-145.69;100.00
1726;BME280;41776;48.260;8.928;2023-04-23T05:07:08;52495.88;;;-145.69;100.00
1726;BME280;41776;48.260;8.928;2023-04-23T05:09:35;52503.81;;;-145.69;100.00
1726;BME280;41776;48.260;8.928;2023-04-23T05:12:01;52493.91;;;-145.69;100.00
1726;BME280;41776;48.260;8.928;2023-04-23T05:14:31;52495.88;;;-145.69;100.00
1726;BME280;41776;48.260;8.928;2023-04-23T05:16:58;52484.00;;;-145.69;100.00
1726;BME280;41776;48.260;8.928;2023-04-23T05:19:24;52521.63;;;-145.69;100.00
1726;BME280;41776;48.260;8.928;2023-04-23T05:21:51;52499.84;;;-145.69;100.00
1726;BME280;41776;48.260;8.928;2023-04-23T05:24:19;52464.19;;;-145.69;100.00
1726;BME280;41776;48.260;8.928;2023-04-23T05:26:45;52489.94;;;-145.69;100.00
1726;BME280;41776;48.260;8.928;2023-04-23T05:29:11;52478.06;;;-145.69;100.00
1726;BME280;41776;48.260;8.928;2023-04-23T05:31:43;52472.13;;;-145.69;100.00
1726;BME280;41776;48.260;8.928;2023-04-23T05:34:10;52495.88;;;-145.69;100.00
1726;BME280;41776;48.260;8.928;2023-04-23T05:36:36;52458.25;;;-145.69;100.00
1726;BME280;41776;48.260;8.928;2023-04-23T05:39:04;52418.63;;;-145.69;100.00
1726;BME280;41776;48.260;8.928;2023-04-23T05:41:32;52487.97;;;-145.69;100.00
1726;BME280;41776;48.260;8.928;2023-04-23T05:43:58;52511.72;;;-145.69;100.00
1726;BME280;41776;48.260;8.928;2023-04-23T05:46:25;52505.78;;;-145.69;100.00
1726;BME280;41776;48.260;8.928;2023-04-23T05:48:51;52464.19;;;-145.69;100.00
1726;BME280;41776;48.260;8.928;2023-04-23T05:51:18;52484.00;;;-145.69;100.00
1726;BME280;41776;48.260;8.928;2023-04-23T05:53:44;52480.03;;;-145.69;100.00
1726;BME280;41776;48.260;8.928;2023-04-23T05:56:11;52426.56;;;-145.69;100.00
1726;BME280;41776;48.260;8.928;2023-04-23T05:58:39;52480.03;;;-145.69;100.00
1726;BME280;41776;48.260;8.928;2023-04-23T06:01:05;52444.38;;;-145.69;100.00
1726;BME280;41776;48.260;8.928;2023-04-23T06:03:33;52474.09;;;-145.69;100.00
1726;BME280;41776;48.260;8.928;2023-04-23T06:06:00;52460.22;;;-145.69;100.00
1726;BME280;41776;48.260;8.928;2023-04-23T06:08:26;52432.50;;;-145.69;100.00
1726;BME280;41776;48.260;8.928;2023-04-23T06:10:53;52460.22;;;-145.69;100.00
1726;BME280;41776;48.260;8.928;2023-04-23T06:13:20;52456.28;;;-145.69;100.00
1726;BME280;41776;48.260;8.928;2023-04-23T06:15:48;52418.63;;;-145.69;100.00
1726;BME280;41776;48.260;8.928;2023-04-23T06:18:14;52468.16;;;-145.69;100.00
1726;BME280;41776;48.260;8.928;2023-04-23T06:20:41;52456.28;;;-145.69;100.00
1726;BME280;41776;48.260;8.928;2023-04-23T06:23:07;52442.41;;;-145.69;100.00
1726;BME280;41776;48.260;8.928;2023-04-23T06:25:34;52440.44;;;-145.69;100.00
1726;BME280;41776;48.260;8.928;2023-04-23T06:28:00;52458.25;;;-145.69;100.00
1726;BME280;41776;48.260;8.928;2023-04-23T06:30:27;52456.28;;;-145.69;100.00
1726;BME280;41776;48.260;8.928;2023-04-23T06:32:55;52396.84;;;-145.69;100.00
1726;BME280;41776;48.260;8.928;2023-04-23T06:35:21;52487.97;;;-145.69;100.00
1726;BME280;41776;48.260;8.928;2023-04-23T06:37:48;52428.53;;;-145.69;100.00
1726;BME280;41776;48.260;8.928;2023-04-23T06:40:14;52426.56;;;-145.69;100.00
1726;BME280;41776;48.260;8.928;2023-04-23T06:42:41;52432.50;;;-145.69;100.00
1726;BME280;41776;48.260;8.928;2023-04-23T06:45:10;52448.34;;;-145.69;100.00
1726;BME280;41776;48.260;8.928;2023-04-23T06:47:36;52460.22;;;-145.69;100.00
1726;BME280;41776;48.260;8.928;2023-04-23T06:50:06;52446.38;;;-145.69;100.00
1726;BME280;41776;48.260;8.928;2023-04-23T06:52:33;52474.09;;;-145.69;100.00
1726;BME280;41776;48.260;8.928;2023-04-23T06:55:01;52438.44;;;-145.69;100.00
1726;BME280;41776;48.260;8.928;2023-04-23T06:57:27;52448.34;;;-145.69;100.00
1726;BME280;41776;48.260;8.928;2023-04-23T06:59:54;52446.38;;;-145.69;100.00
1726;BME280;41776;48.260;8.928;2023-04-23T07:02:20;52430.53;;;-145.69;100.00
1726;BME280;41776;48.260;8.928;2023-04-23T07:04:47;52422.59;;;-145.69;100.00
1726;BME280;41776;48.260;8.928;2023-04-23T07:07:14;52410.72;;;-145.69;100.00
1726;BME280;41776;48.260;8.928;2023-04-23T07:09:42;52446.38;;;-145.69;100.00
1726;BME280;41776;48.260;8.928;2023-04-23T07:12:09;52410.72;;;-145.69;100.00
1726;BME280;41776;48.260;8.928;2023-04-23T07:14:35;52422.59;;;-145.69;100.00
1726;BME280;41776;48.260;8.928;2023-04-23T07:17:02;52424.59;;;-145.69;100.00
1726;BME280;41776;48.260;8.928;2023-04-23T07:19:28;52416.66;;;-145.69;100.00
1726;BME280;41776;48.260;8.928;2023-04-23T07:21:55;52420.63;;;-145.69;100.00
1726;BME280;41776;48.260;8.928;2023-04-23T07:24:23;52402.78;;;-145.69;100.00
1726;BME280;41776;48.260;8.928;2023-04-23T07:26:52;52416.66;;;-145.69;100.00
1726;BME280;41776;48.260;8.928;2023-04-23T07:29:19;52388.94;;;-145.69;100.00
1726;BME280;41776;48.260;8.928;2023-04-23T07:31:48;52396.84;;;-145.69;100.00
1726;BME280;41776;48.260;8.928;2023-04-23T07:34:15;52398.84;;;-145.69;100.00
1726;BME280;41776;48.260;8.928;2023-04-23T07:36:44;52396.84;;;-145.69;100.00
1726;BME280;41776;48.260;8.928;2023-04-23T07:39:13;52396.84;;;-145.69;100.00
1726;BME280;41776;48.260;8.928;2023-04-23T07:41:41;52434.47;;;-145.69;100.00
1726;BME280;41776;48.260;8.928;2023-04-23T07:44:11;52375.06;;;-145.69;100.00
1726;BME280;41776;48.260;8.928;2023-04-23T07:46:41;52394.88;;;-145.69;100.00
1726;BME280;41776;48.260;8.928;2023-04-23T07:49:08;52381.00;;;-145.69;100.00
1726;BME280;41776;48.260;8.928;2023-04-23T07:51:34;52375.06;;;-145.69;100.00
1726;BME280;41776;48.260;8.928;2023-04-23T07:54:01;52381.00;;;-145.69;100.00
1726;BME280;41776;48.260;8.928;2023-04-23T07:56:30;52392.91;;;-145.69;100.00
1726;BME280;41776;48.260;8.928;2023-04-23T07:58:58;52396.84;;;-145.69;100.00
1726;BME280;41776;48.260;8.928;2023-04-23T08:01:25;52390.91;;;-145.69;98.36
1726;BME280;41776;48.260;8.928;2023-04-23T08:03:52;52363.19;;;-145.69;90.28
1726;BME280;41776;48.260;8.928;2023-04-23T08:06:20;52345.38;;;-145.69;86.61
1726;BME280;41776;48.260;8.928;2023-04-23T08:08:47;52339.44;;;-145.69;89.03
1726;BME280;41776;48.260;8.928;2023-04-23T08:11:14;52365.16;;;-145.69;93.66
1726;BME280;41776;48.260;8.928;2023-04-23T08:13:41;52392.91;;;-145.69;90.23
1726;BME280;41776;48.260;8.928;2023-04-23T08:16:09;52384.97;;;-145.69;90.79
1726;BME280;41776;48.260;8.928;2023-04-23T08:18:35;52384.97;;;-145.69;98.30
1726;BME280;41776;48.260;8.928;2023-04-23T08:21:02;52357.25;;;-145.69;92.48
1726;BME280;41776;48.260;8.928;2023-04-23T08:23:29;52363.19;;;-145.69;90.00
1726;BME280;41776;48.260;8.928;2023-04-23T08:25:55;52349.31;;;-145.69;92.72
1726;BME280;41776;48.260;8.928;2023-04-23T08:28:21;52341.41;;;-145.69;91.54
1726;BME280;41776;48.260;8.928;2023-04-23T08:30:48;52377.06;;;-145.69;90.81
1726;BME280;41776;48.260;8.928;2023-04-23T08:33:16;52375.06;;;-145.69;85.96
1726;BME280;41776;48.260;8.928;2023-04-23T08:35:42;52357.25;;;-145.69;100.00
1726;BME280;41776;48.260;8.928;2023-04-23T08:38:09;52341.41;;;-145.69;85.23
1726;BME280;41776;48.260;8.928;2023-04-23T08:40:36;52353.28;;;-145.69;93.76
1726;BME280;41776;48.260;8.928;2023-04-23T08:43:09;52353.28;;;-145.69;91.47
1726;BME280;41776;48.260;8.928;2023-04-23T08:45:38;52377.06;;;-145.69;88.63
1726;BME280;41776;48.260;8.928;2023-04-23T08:48:06;52335.47;;;-145.69;82.79
1726;BME280;41776;48.260;8.928;2023-04-23T08:50:37;52369.13;;;-145.69;81.59
1726;BME280;41776;48.260;8.928;2023-04-23T08:53:07;52373.09;;;-145.69;87.51
1726;BME280;41776;48.260;8.928;2023-04-23T08:55:34;52321.59;;;-145.69;85.63
1726;BME280;41776;48.260;8.928;2023-04-23T08:58:01;52341.41;;;-145.69;82.32
1726;BME280;41776;48.260;8.928;2023-04-23T09:00:31;52347.34;;;-145.69;80.98
1726;BME280;41776;48.260;8.928;2023-04-23T09:02:58;52359.22;;;-145.69;80.53
1726;BME280;41776;48.260;8.928;2023-04-23T09:05:25;52335.47;;;-145.69;79.55
1726;BME280;41776;48.260;8.928;2023-04-23T09:07:53;52317.66;;;-145.69;75.15
1726;BME280;41776;48.260;8.928;2023-04-23T09:10:20;52335.47;;;-145.69;73.77
1726;BME280;41776;48.260;8.928;2023-04-23T09:12:46;52325.56;;;-145.69;66.85
1726;BME280;41776;48.260;8.928;2023-04-23T09:15:13;52345.38;;;-145.69;67.37
1726;BME280;41776;48.260;8.928;2023-04-23T09:17:41;52333.47;;;-145.69;73.50
1726;BME280;41776;48.260;8.928;2023-04-23T09:20:08;52305.75;;;-145.69;79.65
1726;BME280;41776;48.260;8.928;2023-04-23T09:22:40;52309.72;;;-145.69;69.34
1726;BME280;41776;48.260;8.928;2023-04-23T09:25:09;52317.66;;;-145.69;67.36
1726;BME280;41776;48.260;8.928;2023-04-23T09:27:36;52313.69;;;-145.69;79.38
1726;BME280;41776;48.260;8.928;2023-04-23T09:30:03;52317.66;;;-145.69;71.84
1726;BME280;41776;48.260;8.928;2023-04-23T09:32:32;52307.75;;;-145.69;65.32
1726;BME280;41776;48.260;8.928;2023-04-23T09:35:01;52307.75;;;-145.69;74.24
1726;BME280;41776;48.260;8.928;2023-04-23T09:37:29;52274.06;;;-145.69;72.26
1726;BME280;41776;48.260;8.928;2023-04-23T09:39:57;52315.66;;;-145.69;59.55
1726;BME280;41776;48.260;8.928;2023-04-23T09:42:27;52333.47;;;-145.69;64.97
1726;BME280;41776;48.260;8.928;2023-04-23T09:44:58;52309.72;;;-145.69;72.17
1726;BME280;41776;48.260;8.928;2023-04-23T09:47:25;52313.69;;;-145.69;72.99
1726;BME280;41776;48.260;8.928;2023-04-23T09:49:52;52299.81;;;-145.69;70.36
1726;BME280;41776;48.260;8.928;2023-04-23T09:52:18;52323.59;;;-145.69;69.18
1726;BME280;41776;48.260;8.928;2023-04-23T09:54:47;52321.59;;;-145.69;65.68
1726;BME280;41776;48.260;8.928;2023-04-23T09:57:13;52258.22;;;-145.69;66.82
1726;BME280;41776;48.260;8.928;2023-04-23T09:59:41;52315.66;;;-145.69;68.62
1726;BME280;41776;48.260;8.928;2023-04-23T10:02:09;52285.97;;;-145.69;60.65
1726;BME280;41776;48.260;8.928;2023-04-23T10:04:37;52289.91;;;-145.69;62.74
1726;BME280;41776;48.260;8.928;2023-04-23T10:07:05;52345.38;;;-145.69;59.06
1726;BME280;41776;48.260;8.928;2023-04-23T10:09:33;52268.13;;;-145.69;62.90
1726;BME280;41776;48.260;8.928;2023-04-23T10:12:01;52301.81;;;-145.69;69.25
1726;BME280;41776;48.260;8.928;2023-04-23T10:14:28;52274.06;;;-145.69;65.28
1726;BME280;41776;48.260;8.928;2023-04-23T10:16:58;52285.97;;;-145.69;58.46
1726;BME280;41776;48.260;8.928;2023-04-23T10:19:26;52264.16;;;-145.69;60.26
1726;BME280;41776;48.260;8.928;2023-04-23T10:21:55;52293.88;;;-145.69;57.22
1726;BME280;41776;48.260;8.928;2023-04-23T10:24:25;52282.00;;;-145.69;63.19
1726;BME280;41776;48.260;8.928;2023-04-23T10:26:56;52234.47;;;-145.69;64.01
1726;BME280;41776;48.260;8.928;2023-04-23T10:29:26;52293.88;;;-145.69;68.35
1726;BME280;41776;48.260;8.928;2023-04-23T10:31:54;52252.28;;;-145.69;60.40
1726;BME280;41776;48.260;8.928;2023-04-23T10:34:23;52266.16;;;-145.69;69.04
1726;BME280;41776;48.260;8.928;2023-04-23T10:36:49;52289.91;;;-145.69;54.24
1726;BME280;41776;48.260;8.928;2023-04-23T10:39:17;52250.31;;;-145.69;55.12
1726;BME280;41776;48.260;8.928;2023-04-23T10:41:45;52250.31;;;-145.69;60.39
1726;BME280;41776;48.260;8.928;2023-04-23T10:44:12;52246.34;;;-145.69;57.93
1726;BME280;41776;48.260;8.928;2023-04-23T10:46:49;52311.69;;;-145.69;58.52
1726;BME280;41776;48.260;8.928;2023-04-23T10:49:16;52276.06;;;-145.69;64.54
1726;BME280;41776;48.260;8.928;2023-04-23T10:51:46;52291.91;;;-145.69;64.29
1726;BME280;41776;48.260;8.928;2023-04-23T10:54:13;52274.06;;;-145.69;60.58
1726;BME280;41776;48.260;8.928;2023-04-23T10:56:41;52285.97;;;-145.69;63.76
1726;BME280;41776;48.260;8.928;2023-04-23T10:59:17;52246.34;;;-145.69;58.51
1726;BME280;41776;48.260;8.928;2023-04-23T11:01:45;52270.13;;;-145.69;62.39
1726;BME280;41776;48.260;8.928;2023-04-23T11:04:22;52264.16;;;-145.69;58.44
1726;BME280;41776;48.260;8.928;2023-04-23T11:06:54;52293.88;;;-145.69;65.53
1726;BME280;41776;48.260;8.928;2023-04-23T11:09:35;52264.16;;;-145.69;53.61
1726;BME280;41776;48.260;8.928;2023-04-23T11:12:05;52262.19;;;-145.69;54.91
1726;BME280;41776;48.260;8.928;2023-04-23T11:14:33;52256.25;;;-145.69;59.14
1726;BME280;41776;48.260;8.928;2023-04-23T11:17:01;52260.22;;;-145.69;53.52
1726;BME280;41776;48.260;8.928;2023-04-23T11:19:33;52254.28;;;-145.69;56.58
1726;BME280;41776;48.260;8.928;2023-04-23T11:22:03;52276.06;;;-145.69;56.40
1726;BME280;41776;48.260;8.928;2023-04-23T11:24:31;52270.13;;;-145.69;58.18
1726;BME280;41776;48.260;8.928;2023-04-23T11:26:58;52234.47;;;-145.69;57.50
1726;BME280;41776;48.260;8.928;2023-04-23T11:29:26;52228.53;;;-145.69;54.13
1726;BME280;41776;48.260;8.928;2023-04-23T11:31:54;52220.59;;;-145.69;53.36
1726;BME280;41776;48.260;8.928;2023-04-23T11:34:21;52214.66;;;-145.69;51.13
1726;BME280;41776;48.260;8.928;2023-04-23T11:36:50;52270.13;;;-145.69;48.93
1726;BME280;41776;48.260;8.928;2023-04-23T11:39:18;52244.38;;;-145.69;50.12
1726;BME280;41776;48.260;8.928;2023-04-23T11:41:45;52272.09;;;-145.69;51.16
1726;BME280;41776;48.260;8.928;2023-04-23T11:44:12;52272.09;;;-145.69;52.46
1726;BME280;41776;48.260;8.928;2023-04-23T11:46:39;52246.34;;;-145.69;52.11
1726;BME280;41776;48.260;8.928;2023-04-23T11:49:05;52272.09;;;-145.69;54.53
1726;BME280;41776;48.260;8.928;2023-04-23T11:51:33;52250.31;;;-145.69;54.41
1726;BME280;41776;48.260;8.928;2023-04-23T11:54:04;52266.16;;;-145.69;52.29
1726;BME280;41776;48.260;8.928;2023-04-23T11:56:32;52244.38;;;-145.69;53.98
1726;BME280;41776;48.260;8.928;2023-04-23T11:59:00;52242.38;;;-145.69;51.32
1726;BME280;41776;48.260;8.928;2023-04-23T12:01:43;52262.19;;;-145.69;56.72
1726;BME280;41776;48.260;8.928;2023-04-23T12:04:14;52222.59;;;-145.69;49.45
1726;BME280;41776;48.260;8.928;2023-04-23T12:06:43;52218.63;;;-145.69;50.26
1726;BME280;41776;48.260;8.928;2023-04-23T12:09:11;52234.47;;;-145.69;49.71
1726;BME280;41776;48.260;8.928;2023-04-23T12:11:45;52202.78;;;-145.69;48.23
1726;BME280;41776;48.260;8.928;2023-04-23T12:14:13;52228.53;;;-145.69;46.13
1726;BME280;41776;48.260;8.928;2023-04-23T12:16:41;52206.75;;;-145.69;48.81
1726;BME280;41776;48.260;8.928;2023-04-23T12:19:08;52210.72;;;-145.69;46.85
1726;BME280;41776;48.260;8.928;2023-04-23T12:21:46;52228.53;;;-145.69;47.86
1726;BME280;41776;48.260;8.928;2023-04-23T12:24:13;52218.63;;;-145.69;47.58
1726;BME280;41776;48.260;8.928;2023-04-23T12:26:41;52198.81;;;-145.69;48.01
1726;BME280;41776;48.260;8.928;2023-04-23T12:29:08;52230.50;;;-145.69;51.09
1726;BME280;41776;48.260;8.928;2023-04-23T12:31:36;52234.47;;;-145.69;48.97
1726;BME280;41776;48.260;8.928;2023-04-23T12:34:04;52246.34;;;-145.69;48.36
1726;BME280;41776;48.260;8.928;2023-04-23T12:36:32;52226.53;;;-145.69;49.57
1726;BME280;41776;48.260;8.928;2023-04-23T12:39:21;52262.19;;;-145.69;50.75
1726;BME280;41776;48.260;8.928;2023-04-23T12:41:51;52202.78;;;-145.69;48.56
1726;BME280;41776;48.260;8.928;2023-04-23T12:44:18;52238.44;;;-145.69;47.41